EWG115 EGKK-LOWI
Flight info
| Callsign | EWG115 |
|---|---|
| Flight time | N/A |
| Altitude | 31000 |
| Route | FRANE M604 TOVGU M84 CLN L608 SASKI L179 COA Y50 FERDI/N0413F230 UL607 SPI Q50 ARCKY L607 ROPUV/N0454F330 L607 XEBIX |
| Aircraft | A321/M-SDE1FGHIJ1RWXYZ/LB1 |
Departure
| Time | N/A |
|---|---|
| Airport | London Gatwick Airport (EGKK) |
Arrival
| Time | 2026-05-04 14:40 |
|---|---|
| Airport | Innsbruck Airport (LOWI) |
| Time | Latitude | Longitude | Altitude | Speed | Heading |
|---|---|---|---|---|---|
| 2026-05-04 14:13 | 47.41419 | 10.44650 | 35037 ft | 460 kts | 150° |
| 2026-05-04 14:14 | 47.38733 | 10.47215 | 35050 ft | 460 kts | 149° |
| 2026-05-04 14:14 | 47.30894 | 10.55376 | 34706 ft | 463 kts | 138° |
| 2026-05-04 14:15 | 47.27181 | 10.62949 | 34097 ft | 458 kts | 119° |
| 2026-05-04 14:15 | 47.24832 | 10.71652 | 33552 ft | 459 kts | 114° |
| 2026-05-04 14:16 | 47.22553 | 10.80416 | 32982 ft | 460 kts | 114° |
| 2026-05-04 14:16 | 47.21412 | 10.84787 | 32719 ft | 460 kts | 114° |
| 2026-05-04 14:17 | 47.19112 | 10.93567 | 32209 ft | 461 kts | 114° |
| 2026-05-04 14:17 | 47.17963 | 10.97964 | 31935 ft | 462 kts | 114° |
| 2026-05-04 14:17 | 47.15656 | 11.06774 | 31423 ft | 464 kts | 114° |
| 2026-05-04 14:18 | 47.14499 | 11.11190 | 31163 ft | 464 kts | 114° |
| 2026-05-04 14:18 | 47.12170 | 11.20080 | 29327 ft | 471 kts | 113° |
| 2026-05-04 14:19 | 47.09812 | 11.29014 | 27316 ft | 470 kts | 114° |
| 2026-05-04 14:19 | 47.08627 | 11.33485 | 26194 ft | 473 kts | 114° |
| 2026-05-04 14:19 | 47.07430 | 11.37986 | 25007 ft | 477 kts | 113° |
| 2026-05-04 14:19 | 47.06240 | 11.42523 | 23946 ft | 479 kts | 111° |
| 2026-05-04 14:20 | 47.05426 | 11.47255 | 22886 ft | 481 kts | 100° |
| 2026-05-04 14:20 | 47.05225 | 11.52108 | 22046 ft | 476 kts | 90° |
| 2026-05-04 14:20 | 47.05616 | 11.56890 | 21171 ft | 473 kts | 79° |
| 2026-05-04 14:21 | 47.08026 | 11.65747 | 19432 ft | 467 kts | 64° |
| 2026-05-04 14:21 | 47.09525 | 11.69955 | 18579 ft | 463 kts | 64° |
| 2026-05-04 14:21 | 47.11085 | 11.74051 | 17645 ft | 460 kts | 58° |
| 2026-05-04 14:21 | 47.13023 | 11.77735 | 16828 ft | 453 kts | 48° |
| 2026-05-04 14:22 | 47.15223 | 11.80984 | 16022 ft | 446 kts | 45° |
| 2026-05-04 14:22 | 47.17418 | 11.84154 | 15242 ft | 441 kts | 44° |
| 2026-05-04 14:22 | 47.19799 | 11.86939 | 14462 ft | 436 kts | 33° |
| 2026-05-04 14:22 | 47.22444 | 11.89023 | 13740 ft | 430 kts | 22° |
| 2026-05-04 14:23 | 47.28118 | 11.91007 | 12336 ft | 414 kts | 6° |
| 2026-05-04 14:23 | 47.30953 | 11.91567 | 11684 ft | 408 kts | 7° |
| 2026-05-04 14:23 | 47.33739 | 11.92126 | 11175 ft | 398 kts | 7° |
| 2026-05-04 14:24 | 47.36406 | 11.92666 | 11020 ft | 378 kts | 7° |
| 2026-05-04 14:24 | 47.38933 | 11.93175 | 10895 ft | 358 kts | 7° |
| 2026-05-04 14:24 | 47.41337 | 11.93659 | 10775 ft | 342 kts | 6° |
| 2026-05-04 14:24 | 47.43644 | 11.94123 | 10637 ft | 327 kts | 5° |
| 2026-05-04 14:25 | 47.45822 | 11.93951 | 10477 ft | 309 kts | 339° |
| 2026-05-04 14:25 | 47.48420 | 11.89710 | 9994 ft | 281 kts | 274° |
| 2026-05-04 14:25 | 47.48152 | 11.86947 | 9842 ft | 274 kts | 241° |
| 2026-05-04 14:26 | 47.46889 | 11.84919 | 9728 ft | 272 kts | 208° |
| 2026-05-04 14:26 | 47.45064 | 11.84166 | 9598 ft | 275 kts | 189° |
| 2026-05-04 14:26 | 47.43161 | 11.83912 | 9469 ft | 275 kts | 179° |
| 2026-05-04 14:26 | 47.41300 | 11.84154 | 9444 ft | 261 kts | 173° |
| 2026-05-04 14:27 | 47.39596 | 11.84670 | 9516 ft | 240 kts | 169° |
| 2026-05-04 14:27 | 47.38046 | 11.85313 | 9515 ft | 223 kts | 162° |
| 2026-05-04 14:27 | 47.36656 | 11.86055 | 9506 ft | 202 kts | 162° |
| 2026-05-04 14:27 | 47.35398 | 11.86496 | 9529 ft | 175 kts | 185° |
| 2026-05-04 14:28 | 47.34337 | 11.85851 | 9528 ft | 164 kts | 212° |
| 2026-05-04 14:28 | 47.33428 | 11.84864 | 9526 ft | 162 kts | 216° |
| 2026-05-04 14:28 | 47.32697 | 11.83614 | 9520 ft | 164 kts | 237° |
| 2026-05-04 14:28 | 47.32370 | 11.82013 | 9519 ft | 164 kts | 255° |
| 2026-05-04 14:29 | 47.31972 | 11.78704 | 9341 ft | 164 kts | 255° |
| 2026-05-04 14:29 | 47.31539 | 11.75443 | 8899 ft | 162 kts | 253° |
| 2026-05-04 14:30 | 47.31320 | 11.73823 | 8681 ft | 161 kts | 254° |
| 2026-05-04 14:30 | 47.31103 | 11.72221 | 8451 ft | 159 kts | 254° |
| 2026-05-04 14:30 | 47.30667 | 11.69013 | 8028 ft | 162 kts | 256° |
| 2026-05-04 14:31 | 47.30447 | 11.67391 | 7829 ft | 161 kts | 255° |
| 2026-05-04 14:31 | 47.30016 | 11.64232 | 7410 ft | 156 kts | 253° |
| 2026-05-04 14:32 | 47.29592 | 11.61123 | 6973 ft | 153 kts | 252° |
| 2026-05-04 14:32 | 47.29382 | 11.59593 | 6727 ft | 152 kts | 252° |
| 2026-05-04 14:32 | 47.29173 | 11.58065 | 6483 ft | 154 kts | 253° |
| 2026-05-04 14:32 | 47.28961 | 11.56520 | 6232 ft | 154 kts | 254° |
| 2026-05-04 14:33 | 47.28750 | 11.54980 | 5972 ft | 153 kts | 253° |
| 2026-05-04 14:33 | 47.28540 | 11.53452 | 5711 ft | 151 kts | 252° |
| 2026-05-04 14:33 | 47.28333 | 11.51948 | 5471 ft | 149 kts | 252° |
| 2026-05-04 14:33 | 47.28124 | 11.50431 | 5222 ft | 154 kts | 255° |
| 2026-05-04 14:34 | 47.27910 | 11.48878 | 4979 ft | 157 kts | 255° |
| 2026-05-04 14:34 | 47.27687 | 11.47271 | 4706 ft | 163 kts | 253° |
| 2026-05-04 14:34 | 47.27460 | 11.45623 | 4439 ft | 165 kts | 254° |
| 2026-05-04 14:34 | 47.27048 | 11.44089 | 4162 ft | 159 kts | 236° |
| 2026-05-04 14:35 | 47.26452 | 11.42755 | 3890 ft | 154 kts | 232° |
| 2026-05-04 14:35 | 47.25844 | 11.41494 | 3770 ft | 148 kts | 231° |
| 2026-05-04 14:35 | 47.25244 | 11.40269 | 3734 ft | 148 kts | 231° |
| 2026-05-04 14:35 | 47.24642 | 11.39043 | 3737 ft | 148 kts | 232° |
| 2026-05-04 14:36 | 47.24039 | 11.37808 | 3739 ft | 150 kts | 231° |
| 2026-05-04 14:36 | 47.23428 | 11.36561 | 3703 ft | 149 kts | 234° |
| 2026-05-04 14:36 | 47.22905 | 11.35261 | 3711 ft | 150 kts | 252° |
| 2026-05-04 14:36 | 47.22759 | 11.33746 | 3720 ft | 149 kts | 263° |
| 2026-05-04 14:37 | 47.22703 | 11.32237 | 3732 ft | 147 kts | 263° |
| 2026-05-04 14:37 | 47.22655 | 11.30694 | 3726 ft | 152 kts | 258° |
| 2026-05-04 14:37 | 47.22624 | 11.29151 | 3724 ft | 147 kts | 261° |
| 2026-05-04 14:37 | 47.22589 | 11.27628 | 3731 ft | 153 kts | 264° |
| 2026-05-04 14:38 | 47.22967 | 11.26118 | 3588 ft | 167 kts | 302° |
| 2026-05-04 14:38 | 47.23958 | 11.25214 | 3386 ft | 174 kts | 345° |
| 2026-05-04 14:38 | 47.25130 | 11.25390 | 3099 ft | 173 kts | 30° |
| 2026-05-04 14:38 | 47.25717 | 11.26792 | 2833 ft | 160 kts | 93° |
| 2026-05-04 14:39 | 47.25667 | 11.28405 | 2623 ft | 156 kts | 98° |
| 2026-05-04 14:39 | 47.25625 | 11.29996 | 2321 ft | 154 kts | 94° |
| 2026-05-04 14:39 | 47.25721 | 11.31562 | 2154 ft | 157 kts | 86° |
| 2026-05-04 14:40 | 47.26034 | 11.34546 | 1902 ft | 122 kts | 80° |
| 2026-05-04 14:40 | 47.26128 | 11.35367 | 1906 ft | 32 kts | 85° |
| 2026-05-04 14:40 | 47.26114 | 11.35563 | 1906 ft | 16 kts | 105° |
| 2026-05-04 14:40 | 47.26126 | 11.35711 | 1895 ft | 13 kts | 33° |
| 2026-05-04 14:41 | 47.26157 | 11.35651 | 1897 ft | 10 kts | 263° |
| 2026-05-04 14:41 | 47.26148 | 11.35543 | 1903 ft | 12 kts | 263° |
| 2026-05-04 14:41 | 47.26111 | 11.35283 | 1907 ft | 13 kts | 233° |
| 2026-05-04 14:42 | 47.25960 | 11.35282 | 1899 ft | 10 kts | 170° |
| 2026-05-04 14:42 | 47.25901 | 11.35254 | 1896 ft | 9 kts | 260° |
| 2026-05-04 14:42 | 47.25889 | 11.35169 | 1895 ft | 6 kts | 228° |
| 2026-05-04 14:43 | 47.25844 | 11.35167 | 1904 ft | 5 kts | 170° |
| 2026-05-04 14:43 | 47.25833 | 11.35169 | 1897 ft | 0 kts | 172° |